createdAt,value
2022-12-13T00:00:49.277Z,20.15
2022-12-13T00:03:16.506Z,21.23
2022-12-13T00:05:44.836Z,21.67
2022-12-13T00:08:12.198Z,22.70
2022-12-13T00:10:39.438Z,21.23
2022-12-13T00:13:06.648Z,19.77
2022-12-13T00:15:33.855Z,18.55
2022-12-13T00:18:01.019Z,18.27
2022-12-13T00:20:28.122Z,17.50
2022-12-13T00:22:55.260Z,19.40
2022-12-13T00:25:22.593Z,23.13
2022-12-13T00:27:50.225Z,21.60
2022-12-13T00:30:17.380Z,22.33
2022-12-13T00:32:44.558Z,21.45
2022-12-13T00:35:11.859Z,21.35
2022-12-13T00:37:39.091Z,22.13
2022-12-13T00:40:06.582Z,22.45
2022-12-13T00:42:35.541Z,21.30
2022-12-13T00:45:02.622Z,20.05
2022-12-13T00:47:29.723Z,20.17
2022-12-13T00:49:56.950Z,19.83
2022-12-13T00:52:24.112Z,18.83
2022-12-13T00:54:51.227Z,18.83
2022-12-13T00:57:18.539Z,18.63
2022-12-13T00:59:45.682Z,21.10
2022-12-13T01:02:12.904Z,17.25
2022-12-13T01:04:40.088Z,17.92
2022-12-13T01:07:07.210Z,19.00
2022-12-13T01:09:34.348Z,21.05
2022-12-13T01:12:02.954Z,19.98
2022-12-13T01:14:30.399Z,19.45
2022-12-13T01:16:58.027Z,20.73
2022-12-13T01:19:25.988Z,18.60
2022-12-13T01:21:57.029Z,19.95
2022-12-13T01:24:27.151Z,19.27
2022-12-13T01:26:56.889Z,18.92
2022-12-13T01:29:26.021Z,18.63
2022-12-13T01:31:53.882Z,20.08
2022-12-13T01:34:21.872Z,21.70
2022-12-13T01:36:58.003Z,19.88
2022-12-13T01:39:26.464Z,19.92
2022-12-13T01:41:59.950Z,18.35
2022-12-13T01:44:46.117Z,15.98
2022-12-13T01:47:13.981Z,20.95
2022-12-13T01:49:41.239Z,17.42
2022-12-13T01:52:11.710Z,17.80
2022-12-13T01:54:46.654Z,19.85
2022-12-13T01:57:16.060Z,21.23
2022-12-13T01:59:44.187Z,19.83
2022-12-13T02:02:13.108Z,20.52
2022-12-13T02:04:44.325Z,18.45
2022-12-13T02:07:13.893Z,21.55
2022-12-13T02:09:50.191Z,19.13
2022-12-13T02:12:24.880Z,18.77
2022-12-13T02:14:57.675Z,18.52
2022-12-13T02:17:31.001Z,21.15
2022-12-13T02:20:10.184Z,20.77
2022-12-13T02:22:43.233Z,21.08
2022-12-13T02:25:16.500Z,21.30
2022-12-13T02:27:52.233Z,18.55
2022-12-13T02:30:51.840Z,20.00
2022-12-13T02:33:22.247Z,16.83
2022-12-13T02:35:55.882Z,21.15
2022-12-13T02:38:26.685Z,19.48
2022-12-13T02:41:01.349Z,17.70
2022-12-13T02:43:48.921Z,21.42
2022-12-13T02:46:18.143Z,21.67
2022-12-13T02:48:46.503Z,20.45
2022-12-13T02:51:13.876Z,19.83
2022-12-13T02:53:42.138Z,19.52
2022-12-13T02:56:09.301Z,20.15
2022-12-13T02:58:38.015Z,19.88
2022-12-13T03:01:28.913Z,18.92
2022-12-13T03:03:56.765Z,19.63
2022-12-13T03:06:46.910Z,20.52
2022-12-13T03:09:31.142Z,19.45
2022-12-13T03:12:52.210Z,19.80
2022-12-13T03:15:34.422Z,18.42
2022-12-13T03:18:04.770Z,16.98
2022-12-13T03:20:32.254Z,16.67
2022-12-13T03:22:59.758Z,17.48
2022-12-13T03:25:32.184Z,15.85
2022-12-13T03:28:00.848Z,13.02
2022-12-13T03:30:28.887Z,14.15
2022-12-13T03:32:56.008Z,14.05
2022-12-13T03:35:23.302Z,6.18
2022-12-13T03:37:50.870Z,12.82
2022-12-13T03:40:19.042Z,12.05
2022-12-13T03:42:46.374Z,11.90
2022-12-13T03:45:13.822Z,14.38
2022-12-13T03:47:41.246Z,14.98
2022-12-13T03:50:26.566Z,15.20
2022-12-13T03:52:59.105Z,14.38
2022-12-13T03:55:26.599Z,13.52
2022-12-13T03:57:53.768Z,12.57
2022-12-13T04:00:20.941Z,13.45
2022-12-13T04:02:48.281Z,11.73
2022-12-13T04:05:15.805Z,11.50
2022-12-13T04:07:48.109Z,11.18
2022-12-13T04:10:25.970Z,11.85
2022-12-13T04:13:12.910Z,13.52
2022-12-13T04:15:40.356Z,10.52
2022-12-13T04:18:07.828Z,14.48
2022-12-13T04:20:35.023Z,14.75
2022-12-13T04:23:10.228Z,12.43
2022-12-13T04:25:37.839Z,13.52
2022-12-13T04:28:05.117Z,14.70
2022-12-13T04:30:32.321Z,14.43
2022-12-13T04:32:59.530Z,16.20
2022-12-13T04:35:26.700Z,13.10
2022-12-13T04:37:54.049Z,13.70
2022-12-13T04:40:21.996Z,14.43
2022-12-13T04:42:54.024Z,13.40
2022-12-13T04:45:22.750Z,14.68
2022-12-13T04:47:50.018Z,13.30
2022-12-13T04:50:17.215Z,12.52
2022-12-13T04:52:44.974Z,11.80
2022-12-13T04:55:12.288Z,12.55
2022-12-13T04:57:40.205Z,11.82
2022-12-13T05:00:09.702Z,10.63
2022-12-13T05:02:37.122Z,13.38
2022-12-13T05:05:04.701Z,11.00
2022-12-13T05:07:31.899Z,14.27
2022-12-13T05:09:59.063Z,14.07
2022-12-13T05:12:26.253Z,12.77
2022-12-13T05:14:54.195Z,11.13
2022-12-13T05:17:22.051Z,10.00
2022-12-13T05:19:49.324Z,12.68
2022-12-13T05:22:20.336Z,12.48
2022-12-13T05:24:48.670Z,13.68
2022-12-13T05:27:23.810Z,14.02
2022-12-13T05:30:02.277Z,11.32
2022-12-13T05:32:43.507Z,13.82
2022-12-13T05:35:11.665Z,14.05
2022-12-13T05:37:38.816Z,12.75
2022-12-13T05:40:06.561Z,13.45
2022-12-13T05:42:33.802Z,13.90
2022-12-13T05:45:01.069Z,13.57
2022-12-13T05:47:28.207Z,12.13
2022-12-13T05:49:55.456Z,13.57
2022-12-13T05:52:30.302Z,12.75
2022-12-13T05:55:00.884Z,14.48
2022-12-13T05:57:28.687Z,9.60
2022-12-13T05:59:55.844Z,13.63
2022-12-13T06:02:23.531Z,9.43
2022-12-13T06:04:50.916Z,15.30
2022-12-13T06:07:18.112Z,13.75
2022-12-13T06:09:45.229Z,12.15
2022-12-13T06:12:32.107Z,14.95
2022-12-13T06:15:01.132Z,13.40
2022-12-13T06:17:46.706Z,15.02
2022-12-13T06:20:23.758Z,14.02
2022-12-13T06:22:52.006Z,14.88
2022-12-13T06:25:31.219Z,14.88
2022-12-13T06:28:01.149Z,14.05
2022-12-13T06:30:29.206Z,12.48
2022-12-13T06:32:56.419Z,14.43
2022-12-13T06:35:28.967Z,15.35
2022-12-13T06:38:01.385Z,10.48
2022-12-13T06:40:30.388Z,13.23
2022-12-13T06:42:57.838Z,12.80
2022-12-13T06:45:25.617Z,12.77
2022-12-13T06:47:52.748Z,11.52
2022-12-13T06:50:20.148Z,10.85
2022-12-13T06:52:48.080Z,13.95
2022-12-13T06:55:23.718Z,13.02
2022-12-13T06:57:51.675Z,13.93
2022-12-13T07:00:21.907Z,15.10
2022-12-13T07:02:56.806Z,14.05
2022-12-13T07:05:25.069Z,15.98
2022-12-13T07:07:52.238Z,15.27
2022-12-13T07:10:21.886Z,14.38
2022-12-13T07:12:50.031Z,14.40
2022-12-13T07:15:17.181Z,14.75
2022-12-13T07:17:44.493Z,11.57
2022-12-13T07:20:13.564Z,15.65
2022-12-13T07:22:47.170Z,11.07
2022-12-13T07:25:28.561Z,12.60
2022-12-13T07:28:01.252Z,13.90
2022-12-13T07:30:29.046Z,12.35
2022-12-13T07:32:56.232Z,13.23
2022-12-13T07:35:23.380Z,12.45
2022-12-13T07:37:50.532Z,13.63
2022-12-13T07:40:17.878Z,12.52
2022-12-13T07:42:51.415Z,14.27
2022-12-13T07:45:18.643Z,13.65
2022-12-13T07:47:45.810Z,13.68
2022-12-13T07:50:23.907Z,13.23
2022-12-13T07:52:52.586Z,13.05
2022-12-13T07:55:23.247Z,12.60
2022-12-13T07:58:08.249Z,8.45
2022-12-13T08:00:35.564Z,8.80
2022-12-13T08:03:02.731Z,14.77
2022-12-13T08:05:38.302Z,15.40
2022-12-13T08:08:07.317Z,14.43
2022-12-13T08:10:34.564Z,13.85
2022-12-13T08:13:04.934Z,12.40
2022-12-13T08:15:32.225Z,11.68
2022-12-13T08:18:03.950Z,11.93
2022-12-13T08:20:31.145Z,12.23
2022-12-13T08:23:02.254Z,13.23
2022-12-13T08:25:30.400Z,9.85
2022-12-13T08:28:01.544Z,8.30
2022-12-13T08:30:29.599Z,12.57
2022-12-13T08:32:56.802Z,10.88
2022-12-13T08:35:24.663Z,16.17
2022-12-13T08:37:53.111Z,11.48
2022-12-13T08:40:20.508Z,8.90
2022-12-13T08:42:47.657Z,11.18
2022-12-13T08:45:14.856Z,11.25
2022-12-13T08:47:42.317Z,11.55
2022-12-13T08:50:09.624Z,9.02
2022-12-13T08:52:40.406Z,10.85
2022-12-13T08:57:39.258Z,9.95
2022-12-13T09:00:06.914Z,11.30
2022-12-13T09:02:37.999Z,11.65
2022-12-13T09:05:07.194Z,10.45
2022-12-13T09:07:36.017Z,10.15
2022-12-13T09:10:25.556Z,9.43
2022-12-13T09:12:50.705Z,10.35
2022-12-13T09:15:22.255Z,7.90
2022-12-13T09:17:52.642Z,8.82
2022-12-13T09:20:28.910Z,8.35
2022-12-13T09:23:01.127Z,9.55
2022-12-13T09:27:56.499Z,7.38
2022-12-13T09:30:23.695Z,9.88
2022-12-13T09:32:59.138Z,7.93
2022-12-13T09:35:46.900Z,8.05
2022-12-13T09:38:14.090Z,9.60
2022-12-13T09:40:41.742Z,10.75
2022-12-13T09:43:22.047Z,7.55
2022-12-13T09:45:52.483Z,10.10
2022-12-13T09:48:34.468Z,6.70
2022-12-13T09:51:17.103Z,8.45
2022-12-13T09:53:51.497Z,8.02
2022-12-13T09:56:20.191Z,8.02
2022-12-13T09:58:52.341Z,9.80
2022-12-13T10:01:22.267Z,9.10
2022-12-13T10:03:52.546Z,9.70
2022-12-13T10:06:23.598Z,9.10
2022-12-13T10:08:51.241Z,6.77
2022-12-13T10:11:32.881Z,9.73
2022-12-13T10:14:03.427Z,9.55
2022-12-13T10:16:36.261Z,9.00
2022-12-13T10:19:28.882Z,5.65
2022-12-13T10:22:01.312Z,9.18
2022-12-13T10:24:36.227Z,7.85
2022-12-13T10:27:14.794Z,8.10
2022-12-13T10:29:58.290Z,8.25
2022-12-13T10:32:25.486Z,9.18
2022-12-13T10:34:55.322Z,9.27
2022-12-13T10:37:22.540Z,8.68
2022-12-13T10:39:49.978Z,7.20
2022-12-13T10:42:23.581Z,8.85
2022-12-13T10:45:14.853Z,6.88
2022-12-13T10:47:44.515Z,7.13
2022-12-13T10:50:25.447Z,6.70
2022-12-13T10:52:52.738Z,6.63
2022-12-13T10:55:29.149Z,5.82
2022-12-13T10:57:58.341Z,7.03
2022-12-13T11:00:31.679Z,6.90
2022-12-13T11:02:58.920Z,6.40
2022-12-13T11:05:27.587Z,8.15
2022-12-13T11:08:00.947Z,7.25
2022-12-13T11:10:29.566Z,7.50
2022-12-13T11:13:05.140Z,6.40
2022-12-13T11:15:33.981Z,8.07
2022-12-13T11:18:02.364Z,7.18
2022-12-13T11:20:32.245Z,5.55
2022-12-13T11:23:01.373Z,8.85
2022-12-13T11:25:33.336Z,9.02
2022-12-13T11:28:01.018Z,6.75
2022-12-13T11:30:39.158Z,6.63
2022-12-13T11:33:12.782Z,6.55
2022-12-13T11:35:58.778Z,8.57
2022-12-13T11:38:26.349Z,5.95
2022-12-13T11:41:04.139Z,7.05
2022-12-13T11:43:34.514Z,6.45
2022-12-13T11:46:11.870Z,8.25
2022-12-13T11:48:45.415Z,5.28
2022-12-13T11:51:14.795Z,7.53
2022-12-13T11:53:49.002Z,7.20
2022-12-13T11:56:23.899Z,8.20
2022-12-13T11:59:19.115Z,7.78
2022-12-13T12:02:16.531Z,6.97
2022-12-13T12:04:58.312Z,6.78
2022-12-13T12:07:34.479Z,9.23
2022-12-13T12:10:04.555Z,5.78
2022-12-13T12:12:36.278Z,7.30
2022-12-13T12:15:15.478Z,6.50
2022-12-13T12:17:43.211Z,8.40
2022-12-13T12:20:13.549Z,7.57
2022-12-13T12:23:09.100Z,6.75
2022-12-13T12:25:52.621Z,7.50
2022-12-13T12:28:30.945Z,8.57
2022-12-13T12:31:20.885Z,7.45
2022-12-13T12:33:54.226Z,8.52
2022-12-13T12:36:39.352Z,6.25
2022-12-13T12:39:39.333Z,7.93
2022-12-13T12:42:28.401Z,7.93
2022-12-13T12:45:27.086Z,7.53
2022-12-13T12:51:09.563Z,8.18
2022-12-13T12:53:47.922Z,8.63
2022-12-13T12:56:40.414Z,9.38
2022-12-13T12:59:26.132Z,9.00
2022-12-13T13:01:59.532Z,7.55
2022-12-13T13:04:30.408Z,7.70
2022-12-13T13:07:04.053Z,9.45
2022-12-13T13:09:31.853Z,8.60
2022-12-13T13:11:59.414Z,7.95
2022-12-13T13:14:36.735Z,8.02
2022-12-13T13:17:24.192Z,8.00
2022-12-13T13:20:04.224Z,9.25
2022-12-13T13:22:42.846Z,6.85
2022-12-13T13:25:20.920Z,9.52
2022-12-13T13:27:50.759Z,8.48
2022-12-13T13:30:17.972Z,8.82
2022-12-13T13:32:45.145Z,9.70
2022-12-13T13:35:36.151Z,7.78
2022-12-13T13:38:04.723Z,6.97
2022-12-13T13:40:34.478Z,8.98
2022-12-13T13:43:08.770Z,7.53
2022-12-13T13:45:54.764Z,9.52
2022-12-13T13:48:24.972Z,7.93
2022-12-13T13:51:04.453Z,10.80
2022-12-13T13:53:46.709Z,9.70
2022-12-13T13:56:32.653Z,8.65
2022-12-13T13:59:15.460Z,10.00
2022-12-13T14:01:53.786Z,8.40
2022-12-13T14:04:27.151Z,9.82
2022-12-13T14:07:01.162Z,9.95
2022-12-13T14:09:28.551Z,7.78
2022-12-13T14:12:14.179Z,9.48
2022-12-13T14:14:50.047Z,10.05
2022-12-13T14:17:17.545Z,9.65
2022-12-13T14:19:56.358Z,10.48
2022-12-13T14:22:27.574Z,8.55
2022-12-13T14:24:54.926Z,8.60
2022-12-13T14:27:40.883Z,10.23
2022-12-13T14:30:27.033Z,11.23
2022-12-13T14:32:56.087Z,10.93
2022-12-13T14:35:26.880Z,7.60
2022-12-13T14:38:05.354Z,10.93
2022-12-13T14:40:34.069Z,8.50
2022-12-13T14:43:01.711Z,7.72
2022-12-13T14:45:31.554Z,11.23
2022-12-13T14:48:00.156Z,9.77
2022-12-13T14:50:28.550Z,9.45
2022-12-13T14:52:56.401Z,8.73
2022-12-13T14:55:24.334Z,7.80
2022-12-13T14:57:55.525Z,9.52
2022-12-13T15:00:29.208Z,10.52
2022-12-13T15:02:59.920Z,10.75
2022-12-13T15:05:32.974Z,10.40
2022-12-13T15:08:00.356Z,9.55
2022-12-13T15:10:38.182Z,7.35
2022-12-13T15:13:05.530Z,8.95
2022-12-13T15:15:34.452Z,6.60
2022-12-13T15:18:06.930Z,9.45
2022-12-13T15:20:35.058Z,11.23
2022-12-13T15:23:07.870Z,11.00
2022-12-13T15:25:35.780Z,8.45
2022-12-13T15:28:03.843Z,12.05
2022-12-13T15:30:32.575Z,11.50
2022-12-13T15:33:18.927Z,11.43
2022-12-13T15:35:48.103Z,11.73
2022-12-13T15:38:29.197Z,9.65
2022-12-13T15:40:57.347Z,10.75
2022-12-13T15:43:32.178Z,9.02
2022-12-13T15:45:59.322Z,11.05
2022-12-13T15:48:33.339Z,11.60
2022-12-13T15:51:09.664Z,10.75
2022-12-13T15:53:37.649Z,9.77
2022-12-13T15:56:24.902Z,10.35
2022-12-13T15:58:55.377Z,10.93
2022-12-13T16:01:27.043Z,9.93
2022-12-13T16:03:54.293Z,7.43
2022-12-13T16:06:23.196Z,6.97
2022-12-13T16:09:16.723Z,11.85
2022-12-13T16:12:04.259Z,8.50
2022-12-13T16:14:31.621Z,7.65
2022-12-13T16:17:08.235Z,8.38
2022-12-13T16:19:36.009Z,6.78
2022-12-13T16:22:08.298Z,10.35
2022-12-13T16:24:35.957Z,10.88
2022-12-13T16:27:08.367Z,7.88
2022-12-13T16:29:36.036Z,9.77
2022-12-13T16:32:08.280Z,8.88
2022-12-13T16:34:36.421Z,9.80
2022-12-13T16:37:08.473Z,10.32
2022-12-13T16:39:50.870Z,10.52
2022-12-13T16:42:18.111Z,11.50
2022-12-13T16:44:45.452Z,8.73
2022-12-13T16:47:24.383Z,11.38
2022-12-13T16:49:54.298Z,10.45
2022-12-13T16:52:22.123Z,11.00
2022-12-13T16:54:49.314Z,9.20
2022-12-13T16:57:16.474Z,11.50
2022-12-13T16:59:43.870Z,9.57
2022-12-13T17:02:17.165Z,9.35
2022-12-13T17:04:44.519Z,7.60
2022-12-13T17:07:11.810Z,8.25
2022-12-13T17:09:42.102Z,8.23
2022-12-13T17:12:10.203Z,8.55
2022-12-13T17:14:37.590Z,10.75
2022-12-13T17:17:04.716Z,10.23
2022-12-13T17:19:32.848Z,10.98
2022-12-13T17:22:00.003Z,9.32
2022-12-13T17:24:27.226Z,10.82
2022-12-13T17:26:56.701Z,9.65
2022-12-13T17:29:24.886Z,7.90
2022-12-13T17:31:53.091Z,8.95
2022-12-13T17:34:20.425Z,7.72
2022-12-13T17:36:47.632Z,8.70
2022-12-13T17:39:14.926Z,8.75
2022-12-13T17:41:42.206Z,8.45
2022-12-13T17:44:09.475Z,10.02
2022-12-13T17:46:36.832Z,9.93
2022-12-13T17:49:04.606Z,7.20
2022-12-13T17:51:31.989Z,8.13
2022-12-13T17:53:59.184Z,10.75
2022-12-13T17:56:26.374Z,9.10
2022-12-13T17:58:53.569Z,8.30
2022-12-13T18:01:22.012Z,7.57
2022-12-13T18:03:49.804Z,8.80
2022-12-13T18:06:17.277Z,10.82
2022-12-13T18:08:45.250Z,7.63
2022-12-13T18:11:32.589Z,7.72
2022-12-13T18:14:00.310Z,9.25
2022-12-13T18:16:35.764Z,7.25
2022-12-13T18:19:06.095Z,5.03
2022-12-13T18:21:33.626Z,8.40
2022-12-13T18:24:01.029Z,6.90
2022-12-13T18:26:28.233Z,6.05
2022-12-13T18:28:55.504Z,7.90
2022-12-13T18:31:24.048Z,6.85
2022-12-13T18:33:52.213Z,7.20
2022-12-13T18:36:19.978Z,5.10
2022-12-13T18:38:47.832Z,6.80
2022-12-13T18:41:16.510Z,8.70
2022-12-13T18:43:44.150Z,7.65
2022-12-13T18:46:11.827Z,5.55
2022-12-13T18:48:39.029Z,7.28
2022-12-13T18:51:07.790Z,8.25
2022-12-13T18:53:35.542Z,5.70
2022-12-13T18:56:04.902Z,6.45
2022-12-13T18:58:32.687Z,5.78
2022-12-13T19:01:00.236Z,8.10
2022-12-13T19:03:27.919Z,5.50
2022-12-13T19:05:58.972Z,6.47
2022-12-13T19:08:26.773Z,5.72
2022-12-13T19:10:54.524Z,4.78
2022-12-13T19:13:23.773Z,6.93
2022-12-13T19:15:55.180Z,6.30
2022-12-13T19:18:22.536Z,6.53
2022-12-13T19:20:50.510Z,7.57
2022-12-13T19:23:18.001Z,6.35
2022-12-13T19:25:45.439Z,6.60
2022-12-13T19:28:17.622Z,6.15
2022-12-13T19:30:48.114Z,6.75
2022-12-13T19:33:15.753Z,6.50
2022-12-13T19:35:46.602Z,6.13
2022-12-13T19:38:14.104Z,5.78
2022-12-13T19:40:42.195Z,6.90
2022-12-13T19:43:09.547Z,7.50
2022-12-13T19:45:36.693Z,4.53
2022-12-13T19:48:04.448Z,5.47
2022-12-13T19:50:31.648Z,5.50
2022-12-13T19:52:58.958Z,6.85
2022-12-13T19:55:26.225Z,5.57
2022-12-13T19:57:53.372Z,5.68
2022-12-13T20:00:20.667Z,7.63
2022-12-13T20:02:48.094Z,6.57
2022-12-13T20:05:15.298Z,7.78
2022-12-13T20:07:43.610Z,5.20
2022-12-13T20:10:11.272Z,5.70
2022-12-13T20:12:40.903Z,9.25
2022-12-13T20:15:08.802Z,8.50
2022-12-13T20:17:36.258Z,4.15
2022-12-13T20:20:04.083Z,5.55
2022-12-13T20:22:31.813Z,6.80
2022-12-13T20:24:59.037Z,6.18
2022-12-13T20:27:26.421Z,6.95
2022-12-13T20:29:53.679Z,6.80
2022-12-13T20:32:21.317Z,4.45
2022-12-13T20:34:53.253Z,6.72
2022-12-13T20:37:22.135Z,6.45
2022-12-13T20:39:49.463Z,6.50
2022-12-13T20:42:16.784Z,6.18
2022-12-13T20:44:44.006Z,7.35
2022-12-13T20:47:11.540Z,6.30
2022-12-13T20:49:38.788Z,7.00
2022-12-13T20:52:06.149Z,7.22
2022-12-13T20:54:33.385Z,6.78
2022-12-13T20:57:00.605Z,6.40
2022-12-13T20:59:27.770Z,5.50
2022-12-13T21:01:55.053Z,5.53
2022-12-13T21:04:22.263Z,5.45
2022-12-13T21:06:49.486Z,5.68
2022-12-13T21:09:16.742Z,7.85
2022-12-13T21:11:45.915Z,4.85
2022-12-13T21:14:21.421Z,6.00
2022-12-13T21:16:51.060Z,5.43
2022-12-13T21:19:22.856Z,6.47
2022-12-13T21:21:50.566Z,4.88
2022-12-13T21:24:18.524Z,5.70
2022-12-13T21:26:45.963Z,4.60
2022-12-13T21:29:13.728Z,6.72
2022-12-13T21:31:42.973Z,6.45
2022-12-13T21:34:11.030Z,6.25
2022-12-13T21:36:39.908Z,4.88
2022-12-13T21:39:14.874Z,7.13
2022-12-13T21:41:42.725Z,6.88
2022-12-13T21:44:14.292Z,6.95
2022-12-13T21:47:10.757Z,5.88
2022-12-13T21:49:29.166Z,4.57
2022-12-13T21:51:56.431Z,6.55
2022-12-13T21:54:23.541Z,6.07
2022-12-13T21:57:09.168Z,5.00
2022-12-13T21:59:36.497Z,5.40
2022-12-13T22:02:11.943Z,5.75
2022-12-13T22:04:39.251Z,5.10
2022-12-13T22:07:07.637Z,4.40
2022-12-13T22:09:35.596Z,6.88
2022-12-13T22:12:02.996Z,4.95
2022-12-13T22:14:30.159Z,7.32
2022-12-13T22:16:57.342Z,5.82
2022-12-13T22:19:24.527Z,5.88
2022-12-13T22:21:51.924Z,6.50
2022-12-13T22:24:19.093Z,7.22
2022-12-13T22:26:46.239Z,7.43
2022-12-13T22:29:13.570Z,5.22
2022-12-13T22:31:41.276Z,7.15
2022-12-13T22:34:08.953Z,4.97
2022-12-13T22:36:36.209Z,7.07
2022-12-13T22:39:03.903Z,5.80
2022-12-13T22:41:31.287Z,7.20
2022-12-13T22:43:59.320Z,5.85
2022-12-13T22:46:27.564Z,5.18
2022-12-13T22:48:54.746Z,4.85
2022-12-13T22:51:21.913Z,8.02
2022-12-13T22:53:49.278Z,7.75
2022-12-13T22:56:18.549Z,5.47
2022-12-13T22:58:46.253Z,6.57
2022-12-13T23:01:15.433Z,8.23
2022-12-13T23:03:43.393Z,5.53
2022-12-13T23:06:15.254Z,8.00
2022-12-13T23:08:44.894Z,6.97
2022-12-13T23:11:31.370Z,6.50
2022-12-13T23:13:59.568Z,8.30
2022-12-13T23:16:28.682Z,7.38
2022-12-13T23:19:10.917Z,7.47
2022-12-13T23:21:48.422Z,7.15
2022-12-13T23:24:16.047Z,7.38
2022-12-13T23:26:43.371Z,6.68
2022-12-13T23:29:10.933Z,5.63
2022-12-13T23:31:39.877Z,5.68
2022-12-13T23:34:08.366Z,7.85
2022-12-13T23:36:35.784Z,6.70
2022-12-13T23:39:04.095Z,8.60
2022-12-13T23:41:33.894Z,8.85
2022-12-13T23:44:02.811Z,7.55
2022-12-13T23:46:31.910Z,7.95
2022-12-13T23:48:59.849Z,8.30
2022-12-13T23:51:27.358Z,6.38
2022-12-13T23:53:54.902Z,7.85
2022-12-13T23:56:22.220Z,7.57
2022-12-13T23:58:49.497Z,8.43
